createdAt,value
2019-02-12T00:01:56.157Z,99.90
2019-02-12T00:04:23.877Z,99.90
2019-02-12T00:06:51.585Z,99.90
2019-02-12T00:09:19.305Z,99.90
2019-02-12T00:11:47.034Z,99.90
2019-02-12T00:14:14.749Z,99.90
2019-02-12T00:16:42.502Z,99.90
2019-02-12T00:19:10.234Z,99.90
2019-02-12T00:21:37.945Z,99.90
2019-02-12T00:24:05.680Z,99.90
2019-02-12T00:26:33.409Z,99.90
2019-02-12T00:29:01.133Z,99.90
2019-02-12T00:31:28.858Z,99.90
2019-02-12T00:33:56.597Z,99.90
2019-02-12T00:36:24.322Z,99.90
2019-02-12T00:38:52.030Z,99.90
2019-02-12T00:41:19.744Z,99.90
2019-02-12T00:43:47.462Z,99.90
2019-02-12T00:46:15.185Z,99.90
2019-02-12T00:48:42.901Z,99.90
2019-02-12T00:51:17.522Z,99.90
2019-02-12T00:53:40.153Z,99.90
2019-02-12T00:56:07.893Z,99.90
2019-02-12T00:58:35.609Z,99.90
2019-02-12T01:01:03.329Z,99.90
2019-02-12T01:03:31.043Z,99.90
2019-02-12T01:05:58.776Z,99.90
2019-02-12T01:08:26.477Z,99.90
2019-02-12T01:10:54.205Z,99.90
2019-02-12T01:13:21.909Z,99.90
2019-02-12T01:15:49.643Z,99.90
2019-02-12T01:18:17.344Z,99.90
2019-02-12T01:20:45.070Z,99.90
2019-02-12T01:23:12.771Z,99.90
2019-02-12T01:25:40.505Z,99.90
2019-02-12T01:28:08.277Z,99.90
2019-02-12T01:30:36.020Z,99.90
2019-02-12T01:33:03.717Z,99.90
2019-02-12T01:35:31.473Z,99.90
2019-02-12T01:37:59.188Z,99.90
2019-02-12T01:40:26.890Z,99.90
2019-02-12T01:42:54.619Z,99.90
2019-02-12T01:45:22.317Z,99.90
2019-02-12T01:47:50.054Z,99.90
2019-02-12T01:50:17.755Z,99.90
2019-02-12T01:52:45.472Z,99.90
2019-02-12T01:55:13.173Z,99.90
2019-02-12T01:57:40.901Z,99.90
2019-02-12T02:00:10.954Z,99.90
2019-02-12T02:02:38.675Z,99.90
2019-02-12T02:05:07.233Z,99.90
2019-02-12T02:07:34.964Z,99.90
2019-02-12T02:10:04.105Z,99.90
2019-02-12T02:12:31.844Z,99.90
2019-02-12T02:14:59.554Z,99.90
2019-02-12T02:17:27.269Z,99.90
2019-02-12T02:19:54.973Z,99.90
2019-02-12T02:22:22.745Z,99.90
2019-02-12T02:24:50.440Z,99.90
2019-02-12T02:27:18.176Z,99.90
2019-02-12T02:29:45.943Z,99.90
2019-02-12T02:32:13.668Z,99.90
2019-02-12T02:34:41.370Z,99.90
2019-02-12T02:37:09.096Z,99.90
2019-02-12T02:39:36.807Z,99.90
2019-02-12T02:42:04.517Z,99.90
2019-02-12T02:44:32.237Z,99.90
2019-02-12T02:46:59.930Z,99.90
2019-02-12T02:49:27.629Z,99.90
2019-02-12T02:51:55.361Z,99.90
2019-02-12T02:54:23.061Z,99.90
2019-02-12T02:56:50.765Z,99.90
2019-02-12T02:59:18.524Z,99.90
2019-02-12T03:01:46.236Z,99.90
2019-02-12T03:04:14.009Z,99.90
2019-02-12T03:06:41.773Z,99.90
2019-02-12T03:09:09.498Z,99.90
2019-02-12T03:11:37.205Z,99.90
2019-02-12T03:14:04.926Z,99.90
2019-02-12T03:16:32.645Z,99.90
2019-02-12T03:19:00.386Z,99.90
2019-02-12T03:21:28.099Z,99.90
2019-02-12T03:23:55.829Z,99.90
2019-02-12T03:26:23.565Z,99.90
2019-02-12T03:28:51.305Z,99.90
2019-02-12T03:31:19.022Z,99.90
2019-02-12T03:33:46.759Z,99.90
2019-02-12T03:36:14.465Z,99.90
2019-02-12T03:38:42.188Z,99.90
2019-02-12T03:41:09.906Z,99.90
2019-02-12T03:43:37.642Z,99.90
2019-02-12T03:46:05.350Z,99.90
2019-02-12T03:48:33.105Z,99.90
2019-02-12T03:51:00.833Z,99.90
2019-02-12T03:53:28.565Z,99.90
2019-02-12T03:55:56.281Z,99.90
2019-02-12T03:58:24.006Z,99.90
2019-02-12T04:00:51.713Z,99.90
2019-02-12T04:03:19.466Z,99.90
2019-02-12T04:05:47.183Z,99.90
2019-02-12T04:08:14.901Z,99.90
2019-02-12T04:10:42.629Z,99.90
2019-02-12T04:13:10.354Z,99.90
2019-02-12T04:15:38.194Z,99.90
2019-02-12T04:18:05.898Z,99.90
2019-02-12T04:20:33.625Z,99.90
2019-02-12T04:23:01.317Z,99.90
2019-02-12T04:25:29.047Z,99.90
2019-02-12T04:27:56.787Z,99.90
2019-02-12T04:30:24.587Z,99.90
2019-02-12T04:32:52.306Z,99.90
2019-02-12T04:35:20.063Z,99.90
2019-02-12T04:37:47.824Z,99.90
2019-02-12T04:40:15.549Z,99.90
2019-02-12T04:42:43.265Z,99.90
2019-02-12T04:45:11.003Z,99.90
2019-02-12T04:47:38.713Z,99.90
2019-02-12T04:50:07.317Z,99.90
2019-02-12T04:52:35.024Z,99.90
2019-02-12T04:55:02.759Z,99.90
2019-02-12T04:57:30.466Z,99.90
2019-02-12T04:59:58.193Z,99.90
2019-02-12T05:02:25.918Z,99.90
2019-02-12T05:04:53.664Z,99.90
2019-02-12T05:07:21.366Z,99.90
2019-02-12T05:09:51.453Z,99.90
2019-02-12T05:12:20.503Z,99.90
2019-02-12T05:14:48.232Z,99.90
2019-02-12T05:17:15.953Z,99.90
2019-02-12T05:19:43.670Z,99.90
2019-02-12T05:22:11.427Z,99.90
2019-02-12T05:24:39.151Z,99.90
2019-02-12T05:27:06.890Z,99.90
2019-02-12T05:29:34.597Z,99.90
2019-02-12T05:32:02.399Z,99.90
2019-02-12T05:34:30.123Z,99.90
2019-02-12T05:36:57.852Z,99.90
2019-02-12T05:39:25.594Z,99.90
2019-02-12T05:41:53.317Z,99.90
2019-02-12T05:44:21.031Z,99.90
2019-02-12T05:46:48.769Z,99.90
2019-02-12T05:49:16.496Z,99.90
2019-02-12T05:51:44.221Z,99.90
2019-02-12T05:54:11.957Z,99.90
2019-02-12T05:56:39.694Z,99.90
2019-02-12T05:59:07.401Z,99.90
2019-02-12T06:01:35.121Z,99.90
2019-02-12T06:04:02.859Z,99.90
2019-02-12T06:06:30.566Z,99.90
2019-02-12T06:08:58.324Z,99.90
2019-02-12T06:11:27.501Z,99.90
2019-02-12T06:13:55.389Z,99.90
2019-02-12T06:16:23.077Z,99.90
2019-02-12T06:18:50.778Z,99.90
2019-02-12T06:21:18.501Z,99.90
2019-02-12T06:23:46.250Z,99.90
2019-02-12T06:26:14.023Z,99.90
2019-02-12T06:28:41.713Z,99.90
2019-02-12T06:31:09.451Z,99.90
2019-02-12T06:33:37.175Z,99.90
2019-02-12T06:36:04.894Z,99.90
2019-02-12T06:38:32.677Z,99.90
2019-02-12T06:41:00.366Z,99.90
2019-02-12T06:43:28.126Z,99.90
2019-02-12T06:45:55.858Z,99.90
2019-02-12T06:48:23.565Z,99.90
2019-02-12T06:50:51.353Z,99.90
2019-02-12T06:53:19.062Z,99.90
2019-02-12T06:55:46.793Z,99.90
2019-02-12T06:58:14.679Z,99.90
2019-02-12T07:00:42.414Z,99.90
2019-02-12T07:03:17.644Z,99.90
2019-02-12T07:06:04.565Z,99.90
2019-02-12T07:08:56.775Z,99.90
2019-02-12T07:12:03.262Z,99.90
2019-02-12T07:14:45.535Z,99.90
2019-02-12T07:17:56.365Z,99.90
2019-02-12T07:21:06.019Z,99.90
2019-02-12T07:23:58.229Z,99.90
2019-02-12T07:26:58.716Z,99.90
2019-02-12T07:30:17.262Z,99.90
2019-02-12T07:33:35.320Z,99.90
2019-02-12T07:36:28.213Z,99.90
2019-02-12T07:39:22.771Z,99.90
2019-02-12T07:42:29.985Z,99.90
2019-02-12T07:45:29.801Z,99.90
2019-02-12T07:48:33.678Z,99.90
2019-02-12T07:51:53.854Z,99.90
2019-02-12T07:54:52.903Z,99.90
2019-02-12T07:57:49.289Z,99.90
2019-02-12T08:00:50.148Z,99.90
2019-02-12T08:04:10.570Z,99.90
2019-02-12T08:07:29.220Z,99.90
2019-02-12T08:10:30.741Z,99.90
2019-02-12T08:13:46.354Z,99.90
2019-02-12T08:16:26.921Z,99.90
2019-02-12T08:19:32.585Z,99.90
2019-02-12T08:22:45.304Z,99.90
2019-02-12T08:25:39.333Z,99.90
2019-02-12T08:28:36.673Z,99.90
2019-02-12T08:31:30.961Z,99.90
2019-02-12T08:34:35.271Z,99.90
2019-02-12T08:37:25.866Z,99.90
2019-02-12T08:40:24.745Z,99.40
2019-02-12T08:43:01.930Z,98.80
2019-02-12T08:46:01.799Z,99.10
2019-02-12T08:48:50.235Z,99.20
2019-02-12T08:52:10.769Z,99.90
2019-02-12T08:54:48.078Z,99.90
2019-02-12T08:57:44.137Z,99.90
2019-02-12T09:00:48.747Z,99.90
2019-02-12T09:03:57.879Z,99.40
2019-02-12T09:07:03.605Z,99.40
2019-02-12T09:10:08.866Z,99.40
2019-02-12T09:13:30.797Z,98.80
2019-02-12T09:16:46.318Z,97.80
2019-02-12T09:19:31.073Z,97.20
2019-02-12T09:22:11.068Z,96.60
2019-02-12T09:25:08.369Z,96.70
2019-02-12T09:28:25.442Z,97.00
2019-02-12T09:31:29.911Z,97.40
2019-02-12T09:34:13.971Z,97.50
2019-02-12T09:37:04.296Z,96.90
2019-02-12T09:40:03.321Z,96.50
2019-02-12T09:43:10.523Z,96.70
2019-02-12T09:46:07.167Z,96.70
2019-02-12T09:49:17.003Z,96.50
2019-02-12T09:52:26.246Z,97.00
2019-02-12T09:55:12.769Z,96.30
2019-02-12T09:58:06.118Z,96.10
2019-02-12T10:01:10.022Z,96.50
2019-02-12T10:04:29.917Z,96.70
2019-02-12T10:07:31.888Z,97.40
2019-02-12T10:10:36.708Z,98.00
2019-02-12T10:13:10.605Z,98.20
2019-02-12T10:16:05.670Z,98.30
2019-02-12T10:19:07.129Z,98.40
2019-02-12T10:22:12.153Z,98.80
2019-02-12T10:24:56.229Z,99.40
2019-02-12T10:28:11.838Z,99.00
2019-02-12T10:31:04.948Z,98.90
2019-02-12T10:33:32.727Z,99.10
2019-02-12T10:36:00.506Z,99.50
2019-02-12T10:38:28.234Z,99.80
2019-02-12T10:40:56.026Z,99.60
2019-02-12T10:43:23.755Z,99.30
2019-02-12T10:45:51.490Z,98.60
2019-02-12T10:48:19.197Z,98.70
2019-02-12T10:50:46.932Z,98.40
2019-02-12T10:53:14.639Z,98.10
2019-02-12T10:55:42.374Z,98.20
2019-02-12T10:58:10.151Z,97.60
2019-02-12T11:00:37.934Z,96.60
2019-02-12T11:03:05.667Z,95.90
2019-02-12T11:05:33.384Z,95.60
2019-02-12T11:08:01.139Z,95.70
2019-02-12T11:10:28.906Z,95.30
2019-02-12T11:12:56.665Z,94.00
2019-02-12T11:15:24.670Z,93.70
2019-02-12T11:17:52.403Z,94.00
2019-02-12T11:20:20.097Z,93.80
2019-02-12T11:22:47.825Z,93.60
2019-02-12T11:25:15.549Z,93.20
2019-02-12T11:27:43.283Z,93.20
2019-02-12T11:30:11.052Z,93.10
2019-02-12T11:32:38.758Z,93.00
2019-02-12T11:35:07.125Z,92.70
2019-02-12T11:37:36.667Z,92.40
2019-02-12T11:40:05.073Z,92.00
2019-02-12T11:42:32.806Z,91.30
2019-02-12T11:45:00.518Z,91.10
2019-02-12T11:47:28.623Z,91.00
2019-02-12T11:49:56.377Z,91.50
2019-02-12T11:52:24.303Z,91.60
2019-02-12T11:54:52.048Z,91.60
2019-02-12T11:57:19.753Z,91.50
2019-02-12T11:59:47.493Z,91.60
2019-02-12T12:02:22.500Z,91.00
2019-02-12T12:04:50.217Z,90.80
2019-02-12T12:07:17.921Z,91.20
2019-02-12T12:09:45.657Z,90.90
2019-02-12T12:12:13.362Z,90.70
2019-02-12T12:14:41.062Z,90.70
2019-02-12T12:17:08.793Z,90.40
2019-02-12T12:19:36.501Z,90.10
2019-02-12T12:22:04.245Z,89.70
2019-02-12T12:24:32.023Z,89.50
2019-02-12T12:27:00.700Z,89.00
2019-02-12T12:29:28.317Z,88.60
2019-02-12T12:31:56.049Z,87.30
2019-02-12T12:34:23.772Z,87.10
2019-02-12T12:36:51.552Z,86.80
2019-02-12T12:39:19.274Z,86.50
2019-02-12T12:41:46.999Z,86.20
2019-02-12T12:44:14.718Z,86.30
2019-02-12T12:46:42.456Z,86.20
2019-02-12T12:49:10.165Z,85.20
2019-02-12T12:51:37.889Z,85.00
2019-02-12T12:54:05.614Z,83.40
2019-02-12T12:56:33.603Z,83.20
2019-02-12T12:59:02.301Z,84.40
2019-02-12T13:01:30.045Z,83.90
2019-02-12T13:03:57.761Z,83.70
2019-02-12T13:06:25.485Z,84.70
2019-02-12T13:08:53.217Z,84.60
2019-02-12T13:11:20.955Z,83.30
2019-02-12T13:13:48.751Z,84.30
2019-02-12T13:16:16.681Z,83.90
2019-02-12T13:18:44.581Z,84.60
2019-02-12T13:21:12.326Z,84.60
2019-02-12T13:23:40.324Z,84.90
2019-02-12T13:26:08.354Z,85.00
2019-02-12T13:28:36.117Z,84.40
2019-02-12T13:31:03.964Z,84.70
2019-02-12T13:33:31.699Z,83.40
2019-02-12T13:36:01.389Z,83.50
2019-02-12T13:38:29.523Z,82.10
2019-02-12T13:40:57.227Z,84.20
2019-02-12T13:43:25.010Z,84.50
2019-02-12T13:45:52.962Z,85.20
2019-02-12T13:48:20.689Z,82.60
2019-02-12T13:50:48.491Z,81.90
2019-02-12T13:53:16.509Z,82.30
2019-02-12T13:55:44.221Z,83.30
2019-02-12T13:58:11.948Z,82.20
2019-02-12T14:00:39.656Z,81.50
2019-02-12T14:03:07.597Z,81.70
2019-02-12T14:05:35.323Z,81.60
2019-02-12T14:08:04.707Z,81.10
2019-02-12T14:10:32.584Z,80.60
2019-02-12T14:13:00.322Z,81.00
2019-02-12T14:15:28.026Z,81.00
2019-02-12T14:17:56.172Z,80.40
2019-02-12T14:20:24.022Z,80.00
2019-02-12T14:22:51.736Z,80.20
2019-02-12T14:25:25.302Z,77.90
2019-02-12T14:27:49.021Z,77.40
2019-02-12T14:30:16.730Z,75.20
2019-02-12T14:32:44.493Z,75.10
2019-02-12T14:35:12.227Z,72.60
2019-02-12T14:37:40.031Z,71.60
2019-02-12T14:40:08.894Z,70.00
2019-02-12T14:42:36.637Z,69.10
2019-02-12T14:45:05.742Z,69.40
2019-02-12T14:47:33.444Z,70.40
2019-02-12T14:50:01.174Z,69.30
2019-02-12T14:52:28.962Z,68.80
2019-02-12T14:54:56.694Z,68.20
2019-02-12T14:57:24.412Z,68.30
2019-02-12T14:59:52.149Z,68.40
2019-02-12T15:02:20.243Z,69.20
2019-02-12T15:04:47.989Z,69.30
2019-02-12T15:07:16.734Z,70.50
2019-02-12T15:09:44.926Z,70.30
2019-02-12T15:12:16.845Z,71.60
2019-02-12T15:14:45.709Z,71.20
2019-02-12T15:17:16.102Z,70.30
2019-02-12T15:19:44.165Z,70.40
2019-02-12T15:22:16.096Z,68.70
2019-02-12T15:24:44.693Z,69.00
2019-02-12T15:27:17.852Z,70.50
2019-02-12T15:29:49.215Z,70.60
2019-02-12T15:32:16.867Z,71.00
2019-02-12T15:34:44.609Z,70.50
2019-02-12T15:37:12.657Z,70.60
2019-02-12T15:39:45.076Z,70.50
2019-02-12T15:42:14.633Z,69.90
2019-02-12T15:44:42.357Z,69.70
2019-02-12T15:47:10.881Z,71.10
2019-02-12T15:49:38.918Z,69.30
2019-02-12T15:52:06.911Z,69.40
2019-02-12T15:54:34.915Z,70.00
2019-02-12T15:57:02.637Z,70.30
2019-02-12T15:59:33.475Z,70.70
2019-02-12T16:02:02.382Z,70.30
2019-02-12T16:04:30.162Z,69.70
2019-02-12T16:06:59.817Z,69.70
2019-02-12T16:09:31.143Z,69.60
2019-02-12T16:11:58.871Z,69.80
2019-02-12T16:14:27.885Z,69.20
2019-02-12T16:16:55.935Z,69.50
2019-02-12T16:19:23.963Z,69.10
2019-02-12T16:21:53.021Z,69.10
2019-02-12T16:24:21.866Z,69.80
2019-02-12T16:26:49.888Z,69.70
2019-02-12T16:29:18.217Z,70.20
2019-02-12T16:31:45.961Z,70.20
2019-02-12T16:34:14.754Z,72.40
2019-02-12T16:36:47.142Z,78.50
2019-02-12T16:39:14.420Z,81.20
2019-02-12T16:41:42.909Z,83.10
2019-02-12T16:44:12.876Z,83.60
2019-02-12T16:46:40.769Z,85.00
2019-02-12T16:49:11.573Z,85.80
2019-02-12T16:51:40.389Z,86.70
2019-02-12T16:54:11.281Z,87.40
2019-02-12T16:56:41.875Z,88.30
2019-02-12T16:59:11.592Z,89.30
2019-02-12T17:01:41.366Z,90.00
2019-02-12T17:04:13.337Z,90.60
2019-02-12T17:06:41.077Z,91.00
2019-02-12T17:09:09.025Z,91.20
2019-02-12T17:11:36.771Z,91.50
2019-02-12T17:14:04.877Z,91.70
2019-02-12T17:16:32.621Z,92.00
2019-02-12T17:19:02.597Z,92.20
2019-02-12T17:21:30.369Z,92.30
2019-02-12T17:23:58.082Z,92.70
2019-02-12T17:26:25.822Z,92.90
2019-02-12T17:28:53.533Z,93.10
2019-02-12T17:31:21.266Z,93.30
2019-02-12T17:33:48.986Z,93.40
2019-02-12T17:36:16.706Z,93.60
2019-02-12T17:38:44.444Z,93.80
2019-02-12T17:41:12.175Z,93.90
2019-02-12T17:43:39.929Z,94.00
2019-02-12T17:46:07.637Z,94.00
2019-02-12T17:48:35.372Z,94.20
2019-02-12T17:51:03.080Z,94.30
2019-02-12T17:53:31.064Z,94.30
2019-02-12T17:55:58.816Z,94.30
2019-02-12T17:58:26.584Z,94.20
2019-02-12T18:00:54.301Z,94.10
2019-02-12T18:03:22.039Z,94.30
2019-02-12T18:05:49.738Z,94.00
2019-02-12T18:08:19.274Z,94.10
2019-02-12T18:10:47.020Z,94.50
2019-02-12T18:13:14.946Z,94.50
2019-02-12T18:15:42.681Z,94.60
2019-02-12T18:18:10.417Z,94.80
2019-02-12T18:20:38.149Z,94.80
2019-02-12T18:23:05.889Z,94.70
2019-02-12T18:25:33.602Z,95.10
2019-02-12T18:28:01.329Z,95.40
2019-02-12T18:30:29.040Z,94.90
2019-02-12T18:32:56.761Z,95.20
2019-02-12T18:35:24.475Z,95.80
2019-02-12T18:37:52.227Z,96.20
2019-02-12T18:40:20.036Z,96.20
2019-02-12T18:42:47.771Z,96.20
2019-02-12T18:45:15.813Z,96.20
2019-02-12T18:47:43.574Z,96.10
2019-02-12T18:50:11.558Z,96.60
2019-02-12T18:52:39.246Z,96.90
2019-02-12T18:55:07.716Z,96.90
2019-02-12T18:57:35.457Z,96.70
2019-02-12T19:00:03.809Z,96.70
2019-02-12T19:02:31.842Z,96.80
2019-02-12T19:05:01.289Z,96.90
2019-02-12T19:07:29.001Z,96.70
2019-02-12T19:09:56.745Z,96.50
2019-02-12T19:12:24.526Z,96.50
2019-02-12T19:14:52.292Z,96.60
2019-02-12T19:17:20.001Z,96.60
2019-02-12T19:19:47.722Z,96.90
2019-02-12T19:22:15.441Z,97.00
2019-02-12T19:24:43.226Z,97.10
2019-02-12T19:27:10.942Z,97.10
2019-02-12T19:29:38.719Z,97.20
2019-02-12T19:32:06.449Z,97.20
2019-02-12T19:34:34.173Z,97.20
2019-02-12T19:37:01.895Z,97.20
2019-02-12T19:39:29.629Z,97.50
2019-02-12T19:41:57.425Z,97.50
2019-02-12T19:44:25.193Z,97.40
2019-02-12T19:46:52.972Z,97.10
2019-02-12T19:49:20.695Z,97.10
2019-02-12T19:51:48.420Z,97.30
2019-02-12T19:54:16.145Z,97.70
2019-02-12T19:56:43.917Z,98.00
2019-02-12T19:59:11.685Z,98.40
2019-02-12T20:01:39.430Z,98.60
2019-02-12T20:04:07.291Z,98.80
2019-02-12T20:06:35.021Z,98.80
2019-02-12T20:09:05.110Z,99.00
2019-02-12T20:11:32.853Z,98.90
2019-02-12T20:14:00.655Z,98.90
2019-02-12T20:16:28.415Z,99.10
2019-02-12T20:18:56.133Z,99.20
2019-02-12T20:21:23.868Z,99.30
2019-02-12T20:23:51.597Z,99.40
2019-02-12T20:26:19.327Z,99.40
2019-02-12T20:28:47.037Z,99.40
2019-02-12T20:31:14.777Z,99.40
2019-02-12T20:33:42.519Z,99.50
2019-02-12T20:36:10.267Z,99.50
2019-02-12T20:38:37.998Z,99.30
2019-02-12T20:41:05.756Z,99.30
2019-02-12T20:43:33.464Z,99.30
2019-02-12T20:46:01.289Z,99.30
2019-02-12T20:48:29.009Z,99.30
2019-02-12T20:50:56.808Z,99.40
2019-02-12T20:53:24.524Z,99.40
2019-02-12T20:55:52.285Z,99.50
2019-02-12T20:58:19.997Z,99.50
2019-02-12T21:00:47.740Z,99.60
2019-02-12T21:03:15.508Z,99.80
2019-02-12T21:05:43.270Z,99.90
2019-02-12T21:08:10.980Z,99.90
2019-02-12T21:10:38.709Z,99.90
2019-02-12T21:13:06.415Z,99.90
2019-02-12T21:15:34.138Z,99.90
2019-02-12T21:18:01.981Z,99.90
2019-02-12T21:20:29.705Z,99.90
2019-02-12T21:22:57.488Z,99.90
2019-02-12T21:25:25.210Z,99.90
2019-02-12T21:27:52.921Z,99.90
2019-02-12T21:30:20.752Z,99.90
2019-02-12T21:32:48.601Z,99.90
2019-02-12T21:35:16.319Z,99.90
2019-02-12T21:37:44.046Z,99.90
2019-02-12T21:40:19.265Z,99.90
2019-02-12T21:42:48.063Z,99.90
2019-02-12T21:45:15.804Z,99.90
2019-02-12T21:47:43.541Z,99.90
2019-02-12T21:50:11.237Z,99.90
2019-02-12T21:52:38.997Z,99.90
2019-02-12T21:55:07.725Z,99.90
2019-02-12T21:57:35.506Z,99.90
2019-02-12T22:00:03.473Z,99.90
2019-02-12T22:02:31.221Z,99.90
2019-02-12T22:04:58.944Z,99.90
2019-02-12T22:07:26.679Z,99.90
2019-02-12T22:09:54.435Z,99.90
2019-02-12T22:12:22.150Z,99.90
2019-02-12T22:14:49.857Z,99.90
2019-02-12T22:17:17.585Z,99.90
2019-02-12T22:19:45.305Z,99.90
2019-02-12T22:22:13.041Z,99.90
2019-02-12T22:24:41.657Z,99.90
2019-02-12T22:27:09.419Z,99.90
2019-02-12T22:29:37.155Z,99.90
2019-02-12T22:32:04.901Z,99.90
2019-02-12T22:34:32.642Z,99.90
2019-02-12T22:37:00.490Z,99.90
2019-02-12T22:39:28.225Z,99.90
2019-02-12T22:41:55.966Z,99.90
2019-02-12T22:44:23.709Z,99.90
2019-02-12T22:46:51.432Z,99.90
2019-02-12T22:49:19.152Z,99.90
2019-02-12T22:51:46.909Z,99.90
2019-02-12T22:54:14.638Z,99.90
2019-02-12T22:56:42.418Z,99.90
2019-02-12T22:59:10.150Z,99.90
2019-02-12T23:01:38.945Z,99.90
2019-02-12T23:04:06.717Z,99.90
2019-02-12T23:06:34.433Z,99.90
2019-02-12T23:09:03.978Z,99.90
2019-02-12T23:11:31.701Z,99.90
2019-02-12T23:13:59.491Z,99.90
2019-02-12T23:16:27.211Z,99.90
2019-02-12T23:18:54.937Z,99.90
2019-02-12T23:21:22.664Z,99.90
2019-02-12T23:23:50.382Z,99.90
2019-02-12T23:26:18.094Z,99.90
2019-02-12T23:28:45.820Z,99.90
2019-02-12T23:31:13.525Z,99.90
2019-02-12T23:33:41.269Z,99.90
2019-02-12T23:36:08.996Z,99.90
2019-02-12T23:38:36.725Z,99.90
2019-02-12T23:41:04.429Z,99.90
2019-02-12T23:43:32.214Z,99.90
2019-02-12T23:45:59.981Z,99.90
2019-02-12T23:48:27.774Z,99.90
2019-02-12T23:50:55.506Z,99.90
2019-02-12T23:53:23.233Z,99.90
2019-02-12T23:55:50.956Z,99.90
2019-02-12T23:58:18.668Z,99.90
